createdAt,value
2023-05-04T00:00:26.918Z,422.00
2023-05-04T00:01:26.904Z,422.00
2023-05-04T00:02:26.950Z,422.00
2023-05-04T00:03:27.057Z,423.00
2023-05-04T00:04:26.994Z,424.00
2023-05-04T00:05:26.984Z,424.00
2023-05-04T00:06:27.981Z,426.00
2023-05-04T00:07:27.034Z,427.00
2023-05-04T00:08:27.076Z,430.00
2023-05-04T00:09:27.126Z,430.00
2023-05-04T00:10:27.127Z,429.00
2023-05-04T00:11:27.166Z,429.00
2023-05-04T00:12:27.198Z,431.00
2023-05-04T00:13:27.260Z,432.00
2023-05-04T00:14:27.268Z,432.00
2023-05-04T00:15:27.301Z,432.00
2023-05-04T00:16:27.388Z,432.00
2023-05-04T00:17:27.429Z,434.00
2023-05-04T00:18:27.414Z,434.00
2023-05-04T00:19:27.461Z,434.00
2023-05-04T00:20:27.473Z,432.00
2023-05-04T00:21:27.505Z,430.00
2023-05-04T00:22:27.547Z,428.00
2023-05-04T00:23:27.575Z,426.00
2023-05-04T00:24:27.624Z,428.00
2023-05-04T00:25:27.648Z,427.00
2023-05-04T00:26:27.685Z,428.00
2023-05-04T00:27:27.722Z,425.00
2023-05-04T00:28:27.768Z,424.00
2023-05-04T00:29:27.909Z,423.00
2023-05-04T00:30:27.839Z,422.00
2023-05-04T00:31:27.896Z,421.00
2023-05-04T00:32:27.933Z,423.00
2023-05-04T00:33:27.957Z,422.00
2023-05-04T00:34:27.991Z,419.00
2023-05-04T00:35:28.047Z,421.00
2023-05-04T00:36:28.075Z,421.00
2023-05-04T00:37:28.114Z,422.00
2023-05-04T00:38:28.146Z,423.00
2023-05-04T00:39:28.191Z,423.00
2023-05-04T00:40:28.235Z,424.00
2023-05-04T00:41:28.279Z,425.00
2023-05-04T00:42:28.305Z,424.00
2023-05-04T00:43:28.340Z,424.00
2023-05-04T00:44:28.380Z,423.00
2023-05-04T00:45:28.441Z,425.00
2023-05-04T00:46:28.467Z,427.00
2023-05-04T00:47:28.558Z,425.00
2023-05-04T00:48:28.509Z,423.00
2023-05-04T00:49:28.537Z,425.00
2023-05-04T00:50:28.581Z,422.00
2023-05-04T00:51:28.622Z,420.00
2023-05-04T00:52:28.694Z,419.00
2023-05-04T00:53:28.696Z,417.00
2023-05-04T00:54:28.728Z,417.00
2023-05-04T00:55:28.769Z,420.00
2023-05-04T00:56:28.818Z,422.00
2023-05-04T00:57:28.845Z,423.00
2023-05-04T00:58:28.881Z,420.00
2023-05-04T00:59:28.922Z,424.00
2023-05-04T01:00:28.973Z,425.00
2023-05-04T01:01:29.080Z,424.00
2023-05-04T01:02:29.098Z,423.00
2023-05-04T01:03:29.177Z,424.00
2023-05-04T01:04:29.120Z,424.00
2023-05-04T01:05:29.164Z,423.00
2023-05-04T01:06:29.205Z,419.00
2023-05-04T01:07:29.242Z,420.00
2023-05-04T01:08:29.279Z,419.00
2023-05-04T01:09:29.312Z,419.00
2023-05-04T01:10:29.354Z,415.00
2023-05-04T01:11:29.394Z,414.00
2023-05-04T01:12:29.450Z,414.00
2023-05-04T01:13:29.479Z,415.00
2023-05-04T01:14:29.504Z,416.00
2023-05-04T01:15:29.618Z,416.00
2023-05-04T01:16:29.621Z,420.00
2023-05-04T01:17:29.700Z,420.00
2023-05-04T01:18:29.660Z,421.00
2023-05-04T01:19:29.724Z,419.00
2023-05-04T01:20:29.788Z,419.00
2023-05-04T01:21:29.792Z,418.00
2023-05-04T01:22:29.829Z,419.00
2023-05-04T01:23:29.915Z,420.00
2023-05-04T01:24:29.901Z,418.00
2023-05-04T01:25:29.947Z,417.00
2023-05-04T01:26:29.982Z,416.00
2023-05-04T01:27:30.035Z,415.00
2023-05-04T01:28:30.072Z,414.00
2023-05-04T01:29:30.143Z,413.00
2023-05-04T01:30:30.151Z,412.00
2023-05-04T01:31:30.236Z,412.00
2023-05-04T01:32:30.262Z,415.00
2023-05-04T01:33:30.311Z,415.00
2023-05-04T01:34:30.326Z,416.00
2023-05-04T01:35:30.401Z,416.00
2023-05-04T01:36:30.436Z,414.00
2023-05-04T01:37:30.449Z,415.00
2023-05-04T01:38:30.488Z,415.00
2023-05-04T01:39:30.531Z,416.00
2023-05-04T01:40:30.588Z,417.00
2023-05-04T01:41:30.617Z,418.00
2023-05-04T01:42:30.655Z,418.00
2023-05-04T01:43:30.696Z,417.00
2023-05-04T01:44:30.725Z,415.00
2023-05-04T01:45:30.821Z,416.00
2023-05-04T01:46:30.842Z,417.00
2023-05-04T01:47:30.895Z,416.00
2023-05-04T01:48:30.911Z,419.00
2023-05-04T01:49:30.991Z,421.00
2023-05-04T01:50:30.981Z,422.00
2023-05-04T01:51:31.021Z,422.00
2023-05-04T01:52:31.053Z,421.00
2023-05-04T01:53:31.105Z,421.00
2023-05-04T01:54:31.168Z,421.00
2023-05-04T01:55:31.190Z,422.00
2023-05-04T01:56:31.229Z,421.00
2023-05-04T01:57:31.282Z,425.00
2023-05-04T01:58:31.315Z,427.00
2023-05-04T01:59:31.363Z,429.00
2023-05-04T02:00:31.407Z,431.00
2023-05-04T02:01:31.496Z,432.00
2023-05-04T02:02:31.578Z,430.00
2023-05-04T02:03:31.622Z,429.00
2023-05-04T02:04:31.563Z,427.00
2023-05-04T02:05:31.629Z,425.00
2023-05-04T02:06:31.667Z,422.00
2023-05-04T02:07:31.695Z,423.00
2023-05-04T02:08:31.742Z,423.00
2023-05-04T02:09:31.796Z,424.00
2023-05-04T02:10:31.837Z,426.00
2023-05-04T02:11:31.869Z,426.00
2023-05-04T02:12:31.946Z,424.00
2023-05-04T02:13:31.967Z,420.00
2023-05-04T02:14:32.011Z,419.00
2023-05-04T02:15:32.051Z,419.00
2023-05-04T02:16:32.111Z,417.00
2023-05-04T02:17:32.169Z,417.00
2023-05-04T02:18:32.191Z,419.00
2023-05-04T02:19:32.232Z,422.00
2023-05-04T02:20:32.278Z,421.00
2023-05-04T02:21:32.355Z,421.00
2023-05-04T02:22:32.378Z,422.00
2023-05-04T02:23:32.426Z,419.00
2023-05-04T02:24:32.463Z,419.00
2023-05-04T02:25:32.507Z,417.00
2023-05-04T02:26:32.575Z,419.00
2023-05-04T02:27:32.611Z,420.00
2023-05-04T02:28:32.644Z,423.00
2023-05-04T02:29:32.689Z,423.00
2023-05-04T02:30:32.740Z,423.00
2023-05-04T02:31:32.872Z,421.00
2023-05-04T02:32:32.878Z,422.00
2023-05-04T02:33:32.843Z,420.00
2023-05-04T02:34:32.868Z,420.00
2023-05-04T02:35:32.877Z,421.00
2023-05-04T02:36:32.902Z,422.00
2023-05-04T02:37:32.999Z,421.00
2023-05-04T02:38:32.931Z,421.00
2023-05-04T02:39:32.946Z,420.00
2023-05-04T02:40:32.960Z,421.00
2023-05-04T02:41:32.970Z,422.00
2023-05-04T02:42:33.045Z,422.00
2023-05-04T02:43:33.008Z,421.00
2023-05-04T02:44:33.026Z,421.00
2023-05-04T02:45:33.129Z,419.00
2023-05-04T02:46:33.063Z,419.00
2023-05-04T02:47:33.091Z,416.00
2023-05-04T02:48:33.098Z,413.00
2023-05-04T02:49:33.106Z,412.00
2023-05-04T02:50:33.117Z,411.00
2023-05-04T02:51:33.133Z,409.00
2023-05-04T02:52:33.149Z,407.00
2023-05-04T02:53:33.297Z,409.00
2023-05-04T02:54:33.199Z,409.00
2023-05-04T02:55:33.236Z,411.00
2023-05-04T02:56:33.284Z,415.00
2023-05-04T02:57:33.328Z,416.00
2023-05-04T02:58:33.380Z,413.00
2023-05-04T02:59:33.431Z,411.00
2023-05-04T03:00:33.477Z,414.00
2023-05-04T03:01:35.018Z,416.00
2023-05-04T03:02:33.657Z,418.00
2023-05-04T03:03:33.665Z,415.00
2023-05-04T03:04:33.779Z,417.00
2023-05-04T03:05:33.765Z,418.00
2023-05-04T03:06:33.805Z,417.00
2023-05-04T03:07:33.858Z,419.00
2023-05-04T03:08:33.904Z,419.00
2023-05-04T03:09:33.981Z,420.00
2023-05-04T03:10:34.005Z,419.00
2023-05-04T03:11:34.052Z,421.00
2023-05-04T03:12:34.123Z,418.00
2023-05-04T03:13:34.149Z,419.00
2023-05-04T03:14:34.200Z,418.00
2023-05-04T03:15:34.270Z,417.00
2023-05-04T03:16:34.366Z,417.00
2023-05-04T03:17:34.424Z,417.00
2023-05-04T03:18:58.131Z,417.00
2023-05-04T03:19:34.398Z,416.00
2023-05-04T03:20:34.385Z,415.00
2023-05-04T03:21:34.374Z,413.00
2023-05-04T03:22:34.382Z,412.00
2023-05-04T03:23:34.366Z,412.00
2023-05-04T03:24:34.357Z,413.00
2023-05-04T03:25:34.409Z,412.00
2023-05-04T03:26:34.345Z,413.00
2023-05-04T03:27:34.339Z,414.00
2023-05-04T03:28:34.323Z,413.00
2023-05-04T03:29:34.318Z,413.00
2023-05-04T03:30:34.306Z,412.00
2023-05-04T03:31:34.318Z,412.00
2023-05-04T03:32:34.342Z,413.00
2023-05-04T03:33:34.281Z,410.00
2023-05-04T03:34:34.269Z,407.00
2023-05-04T03:35:34.273Z,409.00
2023-05-04T03:36:34.264Z,411.00
2023-05-04T03:37:34.256Z,410.00
2023-05-04T03:38:34.249Z,411.00
2023-05-04T03:39:34.239Z,412.00
2023-05-04T03:40:34.234Z,413.00
2023-05-04T03:41:34.269Z,415.00
2023-05-04T03:42:34.227Z,416.00
2023-05-04T03:43:34.224Z,415.00
2023-05-04T03:44:34.213Z,415.00
2023-05-04T03:45:34.200Z,416.00
2023-05-04T03:46:34.249Z,417.00
2023-05-04T03:47:34.192Z,416.00
2023-05-04T03:48:34.208Z,418.00
2023-05-04T03:49:34.274Z,416.00
2023-05-04T03:50:34.315Z,413.00
2023-05-04T03:51:34.384Z,413.00
2023-05-04T03:52:34.431Z,412.00
2023-05-04T03:53:34.519Z,412.00
2023-05-04T03:54:34.507Z,411.00
2023-05-04T03:55:34.557Z,411.00
2023-05-04T03:56:34.611Z,412.00
2023-05-04T03:57:34.694Z,413.00
2023-05-04T03:58:34.718Z,412.00
2023-05-04T03:59:34.803Z,412.00
2023-05-04T04:00:34.814Z,411.00
2023-05-04T04:01:34.865Z,412.00
2023-05-04T04:02:35.008Z,411.00
2023-05-04T04:03:34.992Z,413.00
2023-05-04T04:04:35.050Z,415.00
2023-05-04T04:05:35.072Z,418.00
2023-05-04T04:06:35.133Z,418.00
2023-05-04T04:07:35.168Z,417.00
2023-05-04T04:08:35.226Z,417.00
2023-05-04T04:09:35.285Z,422.00
2023-05-04T04:10:35.330Z,421.00
2023-05-04T04:11:35.383Z,421.00
2023-05-04T04:12:35.507Z,422.00
2023-05-04T04:13:35.506Z,421.00
2023-05-04T04:14:35.539Z,423.00
2023-05-04T04:15:35.591Z,422.00
2023-05-04T04:16:35.784Z,424.00
2023-05-04T04:17:35.733Z,422.00
2023-05-04T04:18:35.751Z,423.00
2023-05-04T04:19:35.838Z,423.00
2023-05-04T04:20:35.862Z,421.00
2023-05-04T04:21:35.929Z,421.00
2023-05-04T04:22:35.973Z,424.00
2023-05-04T04:23:36.026Z,422.00
2023-05-04T04:24:36.094Z,421.00
2023-05-04T04:25:36.136Z,422.00
2023-05-04T04:26:36.196Z,421.00
2023-05-04T04:27:36.255Z,421.00
2023-05-04T04:28:36.291Z,421.00
2023-05-04T04:29:36.398Z,421.00
2023-05-04T04:30:36.418Z,420.00
2023-05-04T04:31:36.501Z,419.00
2023-05-04T04:32:36.547Z,416.00
2023-05-04T04:33:36.582Z,418.00
2023-05-04T04:34:36.655Z,420.00
2023-05-04T04:35:36.689Z,421.00
2023-05-04T04:36:36.765Z,420.00
2023-05-04T04:37:36.818Z,419.00
2023-05-04T04:38:36.861Z,418.00
2023-05-04T04:39:36.960Z,421.00
2023-05-04T04:40:36.973Z,422.00
2023-05-04T04:41:37.026Z,422.00
2023-05-04T04:42:37.088Z,423.00
2023-05-04T04:43:37.149Z,423.00
2023-05-04T04:44:37.203Z,421.00
2023-05-04T04:45:37.318Z,419.00
2023-05-04T04:46:37.358Z,419.00
2023-05-04T04:47:37.410Z,423.00
2023-05-04T04:48:37.452Z,421.00
2023-05-04T04:49:37.518Z,421.00
2023-05-04T04:50:37.571Z,421.00
2023-05-04T04:51:37.654Z,419.00
2023-05-04T04:52:37.689Z,418.00
2023-05-04T04:53:37.744Z,415.00
2023-05-04T04:54:37.793Z,414.00
2023-05-04T04:55:37.849Z,415.00
2023-05-04T04:56:37.884Z,415.00
2023-05-04T04:57:37.947Z,416.00
2023-05-04T04:58:37.986Z,417.00
2023-05-04T04:59:38.075Z,419.00
2023-05-04T05:00:38.113Z,420.00
2023-05-04T05:01:38.219Z,421.00
2023-05-04T05:02:38.401Z,421.00
2023-05-04T05:03:38.280Z,422.00
2023-05-04T05:04:38.395Z,419.00
2023-05-04T05:05:38.390Z,417.00
2023-05-04T05:06:38.444Z,414.00
2023-05-04T05:07:38.509Z,417.00
2023-05-04T05:08:38.564Z,417.00
2023-05-04T05:09:38.616Z,415.00
2023-05-04T05:10:38.686Z,413.00
2023-05-04T05:11:38.753Z,414.00
2023-05-04T05:12:38.848Z,416.00
2023-05-04T05:13:38.858Z,417.00
2023-05-04T05:14:38.915Z,416.00
2023-05-04T05:15:38.972Z,418.00
2023-05-04T05:16:39.068Z,422.00
2023-05-04T05:17:39.132Z,424.00
2023-05-04T05:18:39.108Z,424.00
2023-05-04T05:19:40.988Z,423.00
2023-05-04T05:20:39.144Z,426.00
2023-05-04T05:21:39.130Z,427.00
2023-05-04T05:22:39.138Z,428.00
2023-05-04T05:23:39.124Z,428.00
2023-05-04T05:24:39.142Z,431.00
2023-05-04T05:25:39.336Z,447.00
2023-05-04T05:26:39.087Z,454.00
2023-05-04T05:27:39.675Z,460.00
2023-05-04T05:28:39.100Z,461.00
2023-05-04T05:29:39.055Z,462.00
2023-05-04T05:30:39.099Z,463.00
2023-05-04T05:31:39.041Z,462.00
2023-05-04T05:32:39.212Z,460.00
2023-05-04T05:33:39.051Z,459.00
2023-05-04T05:34:39.017Z,461.00
2023-05-04T05:35:38.995Z,462.00
2023-05-04T05:36:39.013Z,465.00
2023-05-04T05:37:39.135Z,466.00
2023-05-04T05:38:38.984Z,468.00
2023-05-04T05:39:38.959Z,470.00
2023-05-04T05:40:38.955Z,470.00
2023-05-04T05:41:38.945Z,477.00
2023-05-04T05:42:38.940Z,478.00
2023-05-04T05:43:39.187Z,480.00
2023-05-04T05:44:38.979Z,480.00
2023-05-04T05:45:39.004Z,477.00
2023-05-04T05:46:39.172Z,479.00
2023-05-04T05:47:39.174Z,480.00
2023-05-04T05:48:39.632Z,479.00
2023-05-04T05:49:42.180Z,477.00
2023-05-04T05:50:39.208Z,478.00
2023-05-04T05:51:39.244Z,473.00
2023-05-04T05:52:39.639Z,470.00
2023-05-04T05:53:39.636Z,469.00
2023-05-04T05:54:39.648Z,467.00
2023-05-04T05:55:39.639Z,465.00
2023-05-04T05:56:42.757Z,460.00
2023-05-04T05:57:42.664Z,460.00
2023-05-04T05:58:39.451Z,460.00
2023-05-04T05:59:39.455Z,460.00
2023-05-04T06:00:39.617Z,461.00
2023-05-04T06:01:39.453Z,463.00
2023-05-04T06:02:47.134Z,462.00
2023-05-04T06:03:42.810Z,462.00
2023-05-04T06:06:46.823Z,457.00
2023-05-04T06:07:42.611Z,454.00
2023-05-04T06:08:46.758Z,453.00
2023-05-04T06:09:39.351Z,452.00
2023-05-04T06:10:39.337Z,453.00
2023-05-04T06:11:39.339Z,457.00
2023-05-04T06:12:39.669Z,455.00
2023-05-04T06:13:39.317Z,452.00
2023-05-04T06:14:39.310Z,455.00
2023-05-04T06:15:39.317Z,456.00
2023-05-04T06:16:39.379Z,453.00
2023-05-04T06:17:39.686Z,453.00
2023-05-04T06:18:39.299Z,453.00
2023-05-04T06:19:42.512Z,453.00
2023-05-04T06:20:39.262Z,453.00
2023-05-04T06:21:39.270Z,453.00
2023-05-04T06:22:39.666Z,452.00
2023-05-04T06:23:39.233Z,449.00
2023-05-04T06:24:39.222Z,450.00
2023-05-04T06:25:39.209Z,450.00
2023-05-04T06:26:39.201Z,451.00
2023-05-04T06:27:39.198Z,448.00
2023-05-04T06:28:39.195Z,447.00
2023-05-04T06:29:39.228Z,446.00
2023-05-04T06:30:39.174Z,446.00
2023-05-04T06:31:39.265Z,444.00
2023-05-04T06:32:39.222Z,444.00
2023-05-04T06:33:39.163Z,444.00
2023-05-04T06:34:39.138Z,442.00
2023-05-04T06:35:39.142Z,446.00
2023-05-04T06:36:39.141Z,445.00
2023-05-04T06:37:40.138Z,443.00
2023-05-04T06:38:42.404Z,440.00
2023-05-04T06:39:39.124Z,438.00
2023-05-04T06:40:39.132Z,441.00
2023-05-04T06:41:39.167Z,444.00
2023-05-04T06:42:39.111Z,444.00
2023-05-04T06:43:39.129Z,445.00
2023-05-04T06:44:39.084Z,441.00
2023-05-04T06:45:39.299Z,439.00
2023-05-04T06:46:39.062Z,437.00
2023-05-04T06:47:39.091Z,437.00
2023-05-04T06:48:39.107Z,436.00
2023-05-04T06:49:39.050Z,435.00
2023-05-04T06:50:39.197Z,436.00
2023-05-04T06:51:39.057Z,434.00
2023-05-04T06:52:39.068Z,433.00
2023-05-04T06:53:39.053Z,434.00
2023-05-04T06:54:40.269Z,433.00
2023-05-04T06:55:39.148Z,437.00
2023-05-04T06:56:39.403Z,438.00
2023-05-04T06:57:39.038Z,440.00
2023-05-04T06:58:40.092Z,441.00
2023-05-04T06:59:39.172Z,439.00
2023-05-04T07:00:39.273Z,439.00
2023-05-04T07:01:39.736Z,437.00
2023-05-04T07:02:39.359Z,437.00
2023-05-04T07:03:39.468Z,437.00
2023-05-04T07:04:39.451Z,437.00
2023-05-04T07:05:39.522Z,437.00
2023-05-04T07:06:39.553Z,437.00
2023-05-04T07:07:39.600Z,438.00
2023-05-04T07:08:40.659Z,436.00
2023-05-04T07:09:39.713Z,435.00
2023-05-04T07:10:39.770Z,435.00
2023-05-04T07:11:39.780Z,432.00
2023-05-04T07:12:39.876Z,430.00
2023-05-04T07:13:39.838Z,430.00
2023-05-04T07:14:39.881Z,430.00
2023-05-04T07:15:39.890Z,426.00
2023-05-04T07:16:40.079Z,424.00
2023-05-04T07:17:40.220Z,424.00
2023-05-04T07:18:39.980Z,423.00
2023-05-04T07:19:40.007Z,423.00
2023-05-04T07:20:40.036Z,421.00
2023-05-04T07:21:40.072Z,425.00
2023-05-04T07:22:40.080Z,427.00
2023-05-04T07:23:40.096Z,428.00
2023-05-04T07:24:40.117Z,430.00
2023-05-04T07:25:40.480Z,432.00
2023-05-04T07:26:40.180Z,431.00
2023-05-04T07:27:40.220Z,430.00
2023-05-04T07:28:40.301Z,428.00
2023-05-04T07:29:40.251Z,428.00
2023-05-04T07:30:40.288Z,427.00
2023-05-04T07:31:40.325Z,428.00
2023-05-04T07:32:40.355Z,428.00
2023-05-04T07:33:40.748Z,427.00
2023-05-04T07:34:45.643Z,429.00
2023-05-04T07:35:56.057Z,428.00
2023-05-04T07:36:42.026Z,428.00
2023-05-04T07:37:40.649Z,428.00
2023-05-04T07:38:40.370Z,429.00
2023-05-04T07:39:40.339Z,428.00
2023-05-04T07:40:40.280Z,427.00
2023-05-04T07:41:40.686Z,424.00
2023-05-04T07:42:41.708Z,419.00
2023-05-04T07:43:40.293Z,419.00
2023-05-04T07:44:43.911Z,419.00
2023-05-04T07:45:40.295Z,422.00
2023-05-04T07:46:43.573Z,420.00
2023-05-04T07:47:40.716Z,420.00
2023-05-04T07:48:40.742Z,424.00
2023-05-04T07:49:40.255Z,464.00
2023-05-04T07:50:40.254Z,473.00
2023-05-04T07:51:40.239Z,482.00
2023-05-04T07:52:40.237Z,533.00
2023-05-04T07:53:40.665Z,533.00
2023-05-04T07:54:40.237Z,596.00
2023-05-04T07:55:40.349Z,607.00
2023-05-04T07:56:41.234Z,618.00
2023-05-04T07:57:40.804Z,635.00
2023-05-04T07:58:40.539Z,685.00
2023-05-04T07:59:40.234Z,693.00
2023-05-04T08:00:40.199Z,698.00
2023-05-04T08:01:41.946Z,706.00
2023-05-04T08:02:40.765Z,712.00
2023-05-04T08:03:40.193Z,727.00
2023-05-04T08:04:40.338Z,740.00
2023-05-04T08:05:40.425Z,747.00
2023-05-04T08:06:40.268Z,759.00
2023-05-04T08:07:40.191Z,772.00
2023-05-04T08:08:40.170Z,780.00
2023-05-04T08:09:40.218Z,791.00
2023-05-04T08:10:40.115Z,802.00
2023-05-04T08:11:40.156Z,803.00
2023-05-04T08:12:40.275Z,810.00
2023-05-04T08:13:41.688Z,816.00
2023-05-04T08:14:40.377Z,822.00
2023-05-04T08:15:40.344Z,828.00
2023-05-04T08:16:40.699Z,841.00
2023-05-04T08:17:40.401Z,848.00
2023-05-04T08:18:41.481Z,851.00
2023-05-04T08:19:40.505Z,858.00
2023-05-04T08:20:40.546Z,868.00
2023-05-04T08:21:40.854Z,871.00
2023-05-04T08:22:40.632Z,871.00
2023-05-04T08:23:40.623Z,869.00
2023-05-04T08:24:40.722Z,869.00
2023-05-04T08:25:40.739Z,866.00
2023-05-04T08:26:42.448Z,861.00
2023-05-04T08:27:40.838Z,852.00
2023-05-04T08:28:41.441Z,869.00
2023-05-04T08:29:48.255Z,878.00
2023-05-04T08:30:41.698Z,885.00
2023-05-04T08:31:41.033Z,888.00
2023-05-04T08:32:40.784Z,887.00
2023-05-04T08:33:40.917Z,885.00
2023-05-04T08:34:41.714Z,878.00
2023-05-04T08:35:41.055Z,870.00
2023-05-04T08:36:41.608Z,870.00
2023-05-04T08:37:40.719Z,870.00
2023-05-04T08:38:40.621Z,878.00
2023-05-04T08:39:42.229Z,874.00
2023-05-04T08:40:41.637Z,874.00
2023-05-04T08:41:41.588Z,872.00
2023-05-04T08:42:40.582Z,866.00
2023-05-04T08:43:47.969Z,849.00
2023-05-04T08:44:42.096Z,785.00
2023-05-04T08:45:40.628Z,782.00
2023-05-04T08:46:41.232Z,774.00
2023-05-04T08:47:56.185Z,766.00
2023-05-04T08:48:40.523Z,761.00
2023-05-04T08:49:40.684Z,751.00
2023-05-04T08:50:40.490Z,743.00
2023-05-04T08:51:40.440Z,733.00
2023-05-04T08:52:40.759Z,728.00
2023-05-04T08:53:41.883Z,725.00
2023-05-04T08:54:40.461Z,715.00
2023-05-04T08:55:40.472Z,690.00
2023-05-04T08:56:40.536Z,678.00
2023-05-04T08:57:40.689Z,669.00
2023-05-04T08:58:40.643Z,660.00
2023-05-04T08:59:40.694Z,653.00
2023-05-04T09:00:40.796Z,650.00
2023-05-04T09:01:40.867Z,645.00
2023-05-04T09:02:41.312Z,627.00
2023-05-04T09:03:41.026Z,624.00
2023-05-04T09:04:40.896Z,617.00
2023-05-04T09:05:40.936Z,615.00
2023-05-04T09:06:40.958Z,609.00
2023-05-04T09:07:40.982Z,603.00
2023-05-04T09:08:41.011Z,590.00
2023-05-04T09:09:41.045Z,577.00
2023-05-04T09:10:41.210Z,568.00
2023-05-04T09:11:41.094Z,564.00
2023-05-04T09:12:41.154Z,562.00
2023-05-04T09:13:41.137Z,563.00
2023-05-04T09:15:12.954Z,561.00
2023-05-04T09:15:41.142Z,561.00
2023-05-04T09:16:41.149Z,558.00
2023-05-04T09:17:50.848Z,551.00
2023-05-04T09:18:41.233Z,549.00
2023-05-04T09:19:41.096Z,545.00
2023-05-04T09:20:41.078Z,548.00
2023-05-04T09:21:41.069Z,546.00
2023-05-04T09:22:41.439Z,542.00
2023-05-04T09:23:41.322Z,542.00
2023-05-04T09:24:41.152Z,541.00
2023-05-04T09:25:41.007Z,542.00
2023-05-04T09:26:42.009Z,525.00
2023-05-04T09:27:41.142Z,538.00
2023-05-04T09:28:44.440Z,538.00
2023-05-04T09:29:40.972Z,547.00
2023-05-04T09:30:40.965Z,551.00
2023-05-04T09:31:41.023Z,590.00
2023-05-04T09:32:40.974Z,598.00
2023-05-04T09:33:44.438Z,606.00
2023-05-04T09:34:40.908Z,622.00
2023-05-04T09:35:40.902Z,569.00
2023-05-04T09:36:40.889Z,630.00
2023-05-04T09:37:48.276Z,642.00
2023-05-04T09:38:41.249Z,652.00
2023-05-04T09:39:48.636Z,667.00
2023-05-04T09:40:40.877Z,681.00
2023-05-04T09:41:41.800Z,692.00
2023-05-04T09:42:40.798Z,692.00
2023-05-04T09:43:40.774Z,708.00
2023-05-04T09:44:41.209Z,712.00
2023-05-04T09:45:40.721Z,717.00
2023-05-04T09:46:40.902Z,720.00
2023-05-04T09:47:40.779Z,722.00
2023-05-04T09:48:40.678Z,728.00
2023-05-04T09:49:40.736Z,725.00
2023-05-04T09:50:40.647Z,724.00
2023-05-04T09:51:40.699Z,720.00
2023-05-04T09:52:40.697Z,719.00
2023-05-04T09:53:40.710Z,709.00
2023-05-04T09:54:40.762Z,692.00
2023-05-04T09:55:40.774Z,686.00
2023-05-04T09:56:40.804Z,690.00
2023-05-04T09:57:40.858Z,693.00
2023-05-04T09:58:41.229Z,694.00
2023-05-04T09:59:40.884Z,689.00
2023-05-04T10:00:40.917Z,692.00
2023-05-04T10:01:42.244Z,687.00
2023-05-04T10:02:41.010Z,685.00
2023-05-04T10:03:41.264Z,678.00
2023-05-04T10:05:12.798Z,677.00
2023-05-04T10:05:40.936Z,676.00
2023-05-04T10:06:40.832Z,683.00
2023-05-04T10:07:41.804Z,688.00
2023-05-04T10:08:41.261Z,686.00
2023-05-04T10:09:40.762Z,683.00
2023-05-04T10:10:41.728Z,680.00
2023-05-04T10:11:40.736Z,687.00
2023-05-04T10:12:40.704Z,684.00
2023-05-04T10:13:40.703Z,688.00
2023-05-04T10:14:40.634Z,691.00
2023-05-04T10:15:40.624Z,689.00
2023-05-04T10:16:40.582Z,684.00
2023-05-04T10:17:40.568Z,675.00
2023-05-04T10:18:40.716Z,673.00
2023-05-04T10:19:40.502Z,666.00
2023-05-04T10:20:40.500Z,662.00
2023-05-04T10:21:40.482Z,665.00
2023-05-04T10:22:41.231Z,544.00
2023-05-04T10:23:40.717Z,545.00
2023-05-04T10:24:40.569Z,539.00
2023-05-04T10:25:40.613Z,506.00
2023-05-04T10:26:40.725Z,503.00
2023-05-04T10:27:40.764Z,500.00
2023-05-04T10:28:40.729Z,504.00
2023-05-04T10:29:40.731Z,509.00
2023-05-04T10:30:40.763Z,514.00
2023-05-04T10:31:40.845Z,505.00
2023-05-04T10:32:40.888Z,491.00
2023-05-04T10:33:40.913Z,487.00
2023-05-04T10:34:41.216Z,482.00
2023-05-04T10:35:40.933Z,474.00
2023-05-04T10:36:41.024Z,469.00
2023-05-04T10:37:41.222Z,464.00
2023-05-04T10:38:41.222Z,463.00
2023-05-04T10:39:41.306Z,465.00
2023-05-04T10:40:41.089Z,463.00
2023-05-04T10:41:41.130Z,462.00
2023-05-04T10:42:41.161Z,461.00
2023-05-04T10:43:41.202Z,457.00
2023-05-04T10:44:41.723Z,453.00
2023-05-04T10:45:41.294Z,448.00
2023-05-04T10:46:41.288Z,447.00
2023-05-04T10:47:42.301Z,443.00
2023-05-04T10:48:41.323Z,439.00
2023-05-04T10:49:41.730Z,440.00
2023-05-04T10:50:41.431Z,441.00
2023-05-04T10:51:49.119Z,439.00
2023-05-04T10:52:41.454Z,436.00
2023-05-04T10:53:41.413Z,435.00
2023-05-04T10:54:41.755Z,435.00
2023-05-04T10:55:41.370Z,431.00
2023-05-04T10:56:41.344Z,430.00
2023-05-04T10:57:41.329Z,431.00
2023-05-04T10:58:41.312Z,429.00
2023-05-04T10:59:41.753Z,426.00
2023-05-04T11:00:41.265Z,424.00
2023-05-04T11:01:41.746Z,422.00
2023-05-04T11:02:41.811Z,420.00
2023-05-04T11:03:41.339Z,418.00
2023-05-04T11:04:41.195Z,417.00
2023-05-04T11:05:41.183Z,417.00
2023-05-04T11:06:42.175Z,416.00
2023-05-04T11:07:41.268Z,417.00
2023-05-04T11:08:41.249Z,414.00
2023-05-04T11:09:41.110Z,411.00
2023-05-04T11:10:41.096Z,411.00
2023-05-04T11:11:41.100Z,411.00
2023-05-04T11:12:40.164Z,408.00
2023-05-04T11:13:41.277Z,407.00
2023-05-04T11:14:41.012Z,407.00
2023-05-04T11:15:40.989Z,408.00
2023-05-04T11:16:41.018Z,406.00
2023-05-04T11:17:40.956Z,407.00
2023-05-04T11:18:41.280Z,406.00
2023-05-04T11:19:40.910Z,406.00
2023-05-04T11:20:40.907Z,405.00
2023-05-04T11:21:40.937Z,401.00
2023-05-04T11:22:40.886Z,397.00
2023-05-04T11:23:41.284Z,397.00
2023-05-04T11:24:40.839Z,396.00
2023-05-04T11:25:40.780Z,398.00
2023-05-04T11:26:40.764Z,401.00
2023-05-04T11:27:40.744Z,397.00
2023-05-04T11:28:40.737Z,397.00
2023-05-04T11:29:40.741Z,398.00
2023-05-04T11:30:40.686Z,399.00
2023-05-04T11:31:40.727Z,399.00
2023-05-04T11:32:40.699Z,401.00
2023-05-04T11:33:40.788Z,403.00
2023-05-04T11:34:40.619Z,404.00
2023-05-04T11:35:40.607Z,405.00
2023-05-04T11:36:40.598Z,404.00
2023-05-04T11:37:40.630Z,401.00
2023-05-04T11:38:40.558Z,402.00
2023-05-04T11:39:40.742Z,402.00
2023-05-04T11:40:40.554Z,401.00
2023-05-04T11:41:40.529Z,402.00
2023-05-04T11:42:40.537Z,400.00
2023-05-04T11:43:40.541Z,400.00
2023-05-04T11:44:41.553Z,400.00
2023-05-04T11:45:40.600Z,399.00
2023-05-04T11:46:40.675Z,402.00
2023-05-04T11:47:40.790Z,401.00
2023-05-04T11:48:40.820Z,400.00
2023-05-04T11:49:40.740Z,400.00
2023-05-04T11:50:40.785Z,401.00
2023-05-04T11:51:40.819Z,403.00
2023-05-04T11:52:40.944Z,402.00
2023-05-04T11:53:40.911Z,401.00
2023-05-04T11:54:40.946Z,397.00
2023-05-04T11:55:40.988Z,397.00
2023-05-04T11:56:41.062Z,399.00
2023-05-04T11:57:41.039Z,399.00
2023-05-04T11:58:41.093Z,400.00
2023-05-04T11:59:41.131Z,399.00
2023-05-04T12:00:41.172Z,400.00
2023-05-04T12:01:41.201Z,401.00
2023-05-04T12:02:41.397Z,399.00
2023-05-04T12:03:53.278Z,401.00
2023-05-04T12:04:41.294Z,399.00
2023-05-04T12:05:41.329Z,398.00
2023-05-04T12:06:41.278Z,396.00
2023-05-04T12:07:41.273Z,394.00
2023-05-04T12:08:41.269Z,391.00
2023-05-04T12:09:41.206Z,390.00
2023-05-04T12:10:41.269Z,389.00
2023-05-04T12:11:41.167Z,385.00
2023-05-04T12:12:41.219Z,384.00
2023-05-04T12:13:41.153Z,384.00
2023-05-04T12:14:41.260Z,385.00
2023-05-04T12:15:41.091Z,393.00
2023-05-04T12:16:41.102Z,394.00
2023-05-04T12:17:41.096Z,396.00
2023-05-04T12:18:41.036Z,395.00
2023-05-04T12:19:41.045Z,394.00
2023-05-04T12:20:41.256Z,392.00
2023-05-04T12:21:40.982Z,393.00
2023-05-04T12:22:40.978Z,396.00
2023-05-04T12:23:40.955Z,395.00
2023-05-04T12:24:40.942Z,394.00
2023-05-04T12:25:51.023Z,396.00
2023-05-04T12:26:40.920Z,396.00
2023-05-04T12:27:40.890Z,394.00
2023-05-04T12:28:40.907Z,394.00
2023-05-04T12:29:42.761Z,393.00
2023-05-04T12:30:41.261Z,393.00